Arcadia, North Carolina
Current Conditions -  °F | °C
As of 4:35 AM on Friday 28 Nov 2014 (Local Time) from KEXX Reporting Station
Clear Clear  
Wind Chill: 28°   Ceiling: Unl
Heat Index: 28°   Visibility: 10mi
Dew Point: 21°   Wind: 0mph
Humidity: 77%   Direction: NA
Pressure: 30.31"   Gusts: NA
Location:  35.7974°N, 80.2541°W
Report Text: KEXX 280935Z AUTO 00000KT 10SM CLR M02/M06 A3031 RMK AO2 T10231059
Loading
Personal Weather Stations






























Interactive Weather Map New forecast layout! Learn more

10-Day Weather Forecast

Advertisements
Track Severe Weather on mobile